Terminal Aerodrome Forecast
Issued by NWS

Home | Current Version | Previous Version | Text Only | Print | Product List | Glossary On
Versions: 1 2 3 4 5 6 7 8 9 10 11 12 13 14 15 16 17 18 19 20 21 22
000
FTUS43 KAPX 222030 AAA
TAFPLN
TAF AMD
KPLN 222030Z 2221/2318 21006KT P6SM SCT100 BKN150
     FM222300 VRB03KT P6SM SCT100 BKN150
      TEMPO 2301/2303 4SM -SHRA BKN035
     FM230300 00000KT P6SM OVC008
      TEMPO 2303/2305 4SM -SHRA OVC003
     FM230500 29004KT 4SM BR VCSH OVC008
     FM230700 29005KT 3SM BR OVC003
     FM231200 32009KT 6SM BR BKN010
     FM231500 35011KT P6SM BKN015
     FM231600 35011KT P6SM BKN035=

USA.gov is the U.S. government's official web portal to all federal, state and local government web resources and services.